createdAt,value
2022-12-31T00:01:57.328Z,-3.30
2022-12-31T00:12:02.242Z,-3.40
2022-12-31T00:22:05.877Z,-3.40
2022-12-31T00:32:10.691Z,-3.40
2022-12-31T00:42:14.124Z,-3.30
2022-12-31T00:52:18.983Z,-3.50
2022-12-31T01:02:22.531Z,-3.50
2022-12-31T01:12:27.645Z,-3.40
2022-12-31T01:22:31.175Z,-3.30
2022-12-31T01:32:35.990Z,-3.30
2022-12-31T01:42:40.898Z,-3.30
2022-12-31T01:52:49.124Z,-3.10
2022-12-31T02:02:53.001Z,-2.50
2022-12-31T02:12:58.107Z,-2.60
2022-12-31T02:23:28.298Z,-2.20
2022-12-31T02:33:39.637Z,-2.40
2022-12-31T02:43:47.939Z,-2.20
2022-12-31T02:54:30.218Z,-1.60
2022-12-31T03:04:36.310Z,-1.50
2022-12-31T03:14:41.366Z,-1.40
2022-12-31T03:25:02.361Z,-1.40
2022-12-31T03:35:10.265Z,-1.50
2022-12-31T03:45:14.143Z,-1.60
2022-12-31T03:55:19.316Z,-1.50
2022-12-31T04:05:24.048Z,-1.70
2022-12-31T04:15:28.886Z,-1.40
2022-12-31T04:25:32.434Z,-1.00
2022-12-31T04:35:37.277Z,-0.80
2022-12-31T04:45:40.811Z,-0.60
2022-12-31T04:55:47.042Z,-0.70
2022-12-31T05:05:50.662Z,-1.20
2022-12-31T05:15:55.601Z,-1.20
2022-12-31T05:26:00.275Z,-0.90
2022-12-31T05:36:05.908Z,-0.60
2022-12-31T05:46:10.071Z,-0.30
2022-12-31T05:56:14.978Z,0.00
2022-12-31T06:06:18.412Z,0.50
2022-12-31T06:16:23.312Z,0.90
2022-12-31T06:26:27.299Z,1.30
2022-12-31T06:36:32.126Z,1.90
2022-12-31T06:46:36.064Z,2.10
2022-12-31T06:56:42.654Z,2.10
2022-12-31T07:06:53.439Z,2.50
2022-12-31T07:17:07.457Z,3.40
2022-12-31T07:27:29.228Z,4.30
2022-12-31T07:37:43.844Z,5.50
2022-12-31T07:47:48.187Z,6.60
2022-12-31T07:58:00.603Z,7.40
2022-12-31T08:08:19.692Z,8.30
2022-12-31T08:18:25.156Z,9.70
2022-12-31T08:28:47.990Z,14.20
2022-12-31T08:39:04.330Z,16.30
2022-12-31T08:49:11.440Z,16.90
2022-12-31T08:59:31.362Z,16.40
2022-12-31T09:09:48.643Z,19.40
2022-12-31T09:19:54.750Z,15.00
2022-12-31T09:30:05.389Z,13.60
2022-12-31T09:40:42.968Z,15.50
2022-12-31T09:51:03.967Z,13.60
2022-12-31T10:01:24.452Z,18.50
2022-12-31T10:11:48.256Z,20.30
2022-12-31T10:22:12.313Z,24.20
2022-12-31T10:32:27.801Z,25.10
2022-12-31T10:43:48.928Z,21.80
2022-12-31T10:54:51.517Z,21.70
2022-12-31T11:05:51.244Z,19.90
2022-12-31T11:16:21.509Z,17.10
2022-12-31T11:26:40.412Z,16.00
2022-12-31T11:36:57.666Z,15.20
2022-12-31T11:47:24.815Z,14.20
2022-12-31T11:57:35.971Z,13.80
2022-12-31T12:07:40.817Z,13.20
2022-12-31T12:17:44.423Z,12.80
2022-12-31T12:27:49.614Z,14.90
2022-12-31T12:38:01.981Z,17.30
2022-12-31T12:48:16.737Z,18.10
2022-12-31T12:58:38.173Z,17.60
2022-12-31T13:09:03.581Z,15.00
2022-12-31T13:19:15.794Z,13.50
2022-12-31T13:29:24.070Z,13.00
2022-12-31T13:39:31.483Z,12.50
2022-12-31T13:49:43.838Z,12.20
2022-12-31T13:59:51.493Z,11.80
2022-12-31T14:09:56.503Z,11.60
2022-12-31T14:20:14.976Z,11.30
2022-12-31T14:30:22.646Z,11.10
2022-12-31T14:40:32.135Z,11.00
2022-12-31T14:50:37.895Z,10.70
2022-12-31T15:00:53.688Z,10.20
2022-12-31T15:11:33.310Z,10.00
2022-12-31T15:21:54.126Z,9.60
2022-12-31T15:32:01.322Z,9.40
2022-12-31T15:42:37.315Z,9.40
2022-12-31T15:52:40.494Z,9.20
2022-12-31T16:02:44.729Z,9.10
2022-12-31T16:12:50.858Z,9.00
2022-12-31T16:22:58.526Z,9.10
2022-12-31T16:33:07.284Z,9.20
2022-12-31T16:43:27.941Z,9.40
2022-12-31T16:53:36.268Z,9.80
2022-12-31T17:03:43.975Z,9.90
2022-12-31T17:13:56.130Z,10.00
2022-12-31T17:24:04.679Z,10.10
2022-12-31T17:34:23.920Z,10.30
2022-12-31T17:44:29.658Z,10.40
2022-12-31T17:54:34.475Z,10.40
2022-12-31T18:04:37.958Z,10.20
2022-12-31T18:14:44.126Z,10.10
2022-12-31T18:24:49.733Z,10.00
2022-12-31T18:34:54.591Z,10.10
2022-12-31T18:44:58.118Z,10.10
2022-12-31T18:55:03.042Z,10.00
2022-12-31T19:05:23.241Z,10.10
2022-12-31T19:15:33.032Z,10.30
2022-12-31T19:25:37.576Z,10.10
2022-12-31T19:35:42.695Z,10.00
2022-12-31T19:45:47.625Z,10.00
2022-12-31T19:55:53.963Z,9.90
2022-12-31T20:06:05.296Z,9.60
2022-12-31T20:16:13.440Z,9.60
2022-12-31T20:26:17.571Z,9.50
2022-12-31T20:36:23.001Z,9.40
2022-12-31T20:46:28.673Z,9.50
2022-12-31T20:56:36.757Z,9.60
2022-12-31T21:06:40.244Z,9.70
2022-12-31T21:16:45.161Z,10.00
2022-12-31T21:26:48.607Z,10.20
2022-12-31T21:36:53.473Z,10.40
2022-12-31T21:47:41.037Z,10.40
2022-12-31T21:58:24.147Z,10.30
2022-12-31T22:08:10.384Z,10.20
2022-12-31T22:18:17.021Z,10.30
2022-12-31T22:28:39.046Z,10.20
2022-12-31T22:38:45.184Z,10.10
2022-12-31T22:48:49.740Z,10.00
2022-12-31T22:58:54.615Z,10.20
2022-12-31T23:09:15.637Z,10.50
2022-12-31T23:19:37.895Z,10.00
2022-12-31T23:29:47.046Z,9.90
2022-12-31T23:39:52.464Z,10.10
2022-12-31T23:49:55.889Z,10.00
